Time;durP1;ratioP1;P1;durP2;ratioP2;P2;SDS_P1;SDS_P2;PMS_P1;PMS_P2;Temp;Humidity;BMP_temperature;BMP_pressure;BME280_temperature;BME280_humidity;BME280_pressure;Samples;Min_cycle;Max_cycle;Signal;HPM_P1;HPM_P2
2022/07/02 07:03:04;;;;;;;3.78;1.80;;;;;;;;;;13025771;22;20494;-84
2022/07/02 07:08:05;;;;;;;2.92;1.50;;;;;;;;;;12993793;22;20085;-84
2022/07/02 07:13:07;;;;;;;3.45;1.70;;;;;;;;;;12979131;22;20505;-85
2022/07/02 07:18:12;;;;;;;4.15;1.60;;;;;;;;;;12979406;22;20042;-84
2022/07/02 07:23:26;;;;;;;2.83;1.20;;;;;;;;;;13007974;22;20008;-84
2022/07/02 07:28:27;;;;;;;2.60;1.30;;;;;;;;;;12986198;22;20031;-83
2022/07/02 07:33:28;;;;;;;4.05;1.20;;;;;;;;;;12980085;22;20061;-84
2022/07/02 07:38:30;;;;;;;2.15;1.10;;;;;;;;;;12975068;22;20008;-83
2022/07/02 07:43:43;;;;;;;6.82;3.58;;;;;;;;;;12978855;22;20240;-83
2022/07/02 07:48:46;;;;;;;3.22;1.30;;;;;;;;;;12987719;22;20011;-84
2022/07/02 07:53:49;;;;;;;2.22;1.40;;;;;;;;;;12979755;22;20071;-84
2022/07/02 07:58:56;;;;;;;3.20;1.48;;;;;;;;;;12956728;22;20019;-83
2022/07/02 08:09:22;;;;;;;2.63;1.08;;;;;;;;;;13005918;22;20012;-83
2022/07/02 08:14:23;;;;;;;4.60;1.42;;;;;;;;;;12980459;22;20085;-85
2022/07/02 08:19:36;;;;;;;3.85;1.13;;;;;;;;;;12980564;22;20030;-83
2022/07/02 08:24:53;;;;;;;2.10;1.10;;;;;;;;;;12981985;22;20000;-83
2022/07/02 08:30:03;;;;;;;4.07;1.20;;;;;;;;;;12980902;22;20034;-83
2022/07/02 08:35:15;;;;;;;2.20;0.98;;;;;;;;;;13003721;22;20016;-82
2022/07/02 08:40:17;;;;;;;2.30;1.63;;;;;;;;;;12989459;22;20007;-83
2022/07/02 08:45:21;;;;;;;5.20;2.80;;;;;;;;;;12975796;22;20100;-84
2022/07/02 08:50:52;;;;;;;2.47;1.33;;;;;;;;;;12998254;22;20372;-83
2022/07/02 08:56:09;;;;;;;3.10;1.13;;;;;;;;;;13000113;22;20003;-83
2022/07/02 09:13:00;;;;;;;2.05;1.30;;;;;;;;;;12966963;22;20522;-80
2022/07/02 09:18:14;;;;;;;5.10;1.40;;;;;;;;;;13003205;22;20014;-81
2022/07/02 09:23:28;;;;;;;5.65;2.70;;;;;;;;;;12972546;22;20463;-82
2022/07/02 09:28:47;;;;;;;3.22;1.20;;;;;;;;;;12992611;22;20023;-81
2022/07/02 09:33:53;;;;;;;2.97;1.00;;;;;;;;;;12998277;22;20070;-81
2022/07/02 09:39:02;;;;;;;2.53;1.20;;;;;;;;;;12991261;22;20519;-81
2022/07/02 09:44:27;;;;;;;1.45;0.82;;;;;;;;;;12913078;22;20313;-81
2022/07/02 10:07:25;;;;;;;2.78;0.70;;;;;;;;;;12474650;23;20080;-82
2022/07/02 10:12:58;;;;;;;;;;;;;;;;;;12370101;23;20024;-82
2022/07/02 10:35:28;;;;;;;1.33;0.90;;;;;;;;;;12841927;23;19985;-82
2022/07/02 11:49:08;;;;;;;1.85;0.80;;;;;;;;;;12838888;23;20485;-82
2022/07/02 11:54:27;;;;;;;1.70;0.70;;;;;;;;;;12906762;22;20016;-82
2022/07/02 12:22:44;;;;;;;0.60;0.60;;;;;;;;;;13034626;22;20027;-82
2022/07/02 12:50:48;;;;;;;3.17;2.30;;;;;;;;;;13037564;22;20079;-84
2022/07/02 12:56:18;;;;;;;2.38;1.48;;;;;;;;;;13036257;22;20011;-83
2022/07/02 13:01:59;;;;;;;12.40;10.27;;;;;;;;;;12781978;23;20011;-84
2022/07/02 13:19:47;;;;;;;1.17;0.60;;;;;;;;;;12718003;23;20014;-83
2022/07/02 13:30:39;;;;;;;4.20;1.35;;;;;;;;;;12737048;23;20021;-83
2022/07/02 13:41:32;;;;;;;3.03;1.13;;;;;;;;;;12731722;23;20065;-84
2022/07/02 13:46:57;;;;;;;31.00;28.45;;;;;;;;;;12704782;23;20010;-84
2022/07/02 13:58:18;;;;;;;2.22;1.10;;;;;;;;;;12779729;23;20017;-84
2022/07/02 14:03:50;;;;;;;2.40;0.90;;;;;;;;;;12765313;23;20010;-83
2022/07/02 14:09:10;;;;;;;1.15;0.80;;;;;;;;;;12802601;22;20019;-84
2022/07/02 14:14:17;;;;;;;2.30;1.10;;;;;;;;;;13018277;22;20019;-86
2022/07/02 14:19:26;;;;;;;3.38;1.13;;;;;;;;;;13032817;22;20027;-83
2022/07/02 14:24:28;;;;;;;;;;;;;;;;;;13029716;22;20006;-83
2022/07/02 14:29:50;;;;;;;2.25;0.88;;;;;;;;;;13011332;22;19938;-82
2022/07/02 14:35:19;;;;;;;1.95;0.90;;;;;;;;;;12836733;23;20004;-84
2022/07/02 14:46:31;;;;;;;1.15;0.80;;;;;;;;;;12825538;23;20033;-84
2022/07/02 14:51:51;;;;;;;2.35;0.90;;;;;;;;;;12815863;23;20019;-83
2022/07/02 15:03:21;;;;;;;1.30;0.70;;;;;;;;;;12912139;23;20008;-84
2022/07/02 15:09:05;;;;;;;1.42;1.00;;;;;;;;;;12785843;23;20024;-83
2022/07/02 15:25:42;;;;;;;1.13;0.80;;;;;;;;;;12788013;23;20057;-82
2022/07/02 15:37:19;;;;;;;1.63;0.90;;;;;;;;;;12754438;23;20018;-84
2022/07/02 15:48:20;;;;;;;2.67;0.95;;;;;;;;;;12817045;23;20045;-83
2022/07/02 15:53:32;;;;;;;2.20;1.23;;;;;;;;;;12794796;23;20015;-84
2022/07/02 15:58:34;;;;;;;2.53;1.25;;;;;;;;;;13001655;22;20007;-84
2022/07/02 16:03:56;;;;;;;1.52;0.98;;;;;;;;;;13009605;22;20329;-85
2022/07/02 16:09:28;;;;;;;1.30;0.68;;;;;;;;;;12995432;22;20008;-82
2022/07/02 16:20:33;;;;;;;1.80;0.80;;;;;;;;;;13007346;22;20000;-84
2022/07/02 16:25:43;;;;;;;2.45;0.80;;;;;;;;;;13009131;22;20015;-84
2022/07/02 16:30:45;;;;;;;1.60;1.00;;;;;;;;;;13004664;22;20075;-84
2022/07/02 16:35:50;;;;;;;1.42;1.20;;;;;;;;;;13005495;22;20485;-84
2022/07/02 16:40:52;;;;;;;1.10;0.80;;;;;;;;;;13008131;22;20038;-82
2022/07/02 16:46:00;;;;;;;2.25;0.93;;;;;;;;;;13008888;22;20016;-82
2022/07/02 16:51:54;;;;;;;1.80;1.02;;;;;;;;;;12987212;22;20391;-83
2022/07/02 16:57:22;;;;;;;3.03;1.00;;;;;;;;;;13009089;22;20004;-84
2022/07/02 17:08:10;;;;;;;2.67;1.10;;;;;;;;;;13005893;22;20016;-83
2022/07/02 17:13:12;;;;;;;2.67;1.20;;;;;;;;;;13002746;22;20039;-83
2022/07/02 17:18:13;;;;;;;3.08;1.23;;;;;;;;;;13008551;22;20454;-83
2022/07/02 17:23:15;;;;;;;2.92;1.73;;;;;;;;;;12999894;22;20022;-83
2022/07/02 17:33:55;;;;;;;4.38;1.58;;;;;;;;;;13010533;22;20008;-83
2022/07/02 17:39:07;;;;;;;4.50;2.40;;;;;;;;;;13007900;22;20011;-83
2022/07/02 17:44:53;;;;;;;6.60;3.30;;;;;;;;;;12883168;23;20063;-83
2022/07/02 17:56:11;;;;;;;;;;;;;;;;;;12447115;23;20020;-83
2022/07/02 18:58:54;;;;;;;2.40;1.27;;;;;;;;;;12772253;23;20069;-83
2022/07/02 19:10:18;;;;;;;2.38;1.00;;;;;;;;;;12796706;23;20402;-82
